Bolu, Turkey
Current Conditions -  °F | °C
As of 12:11 PM on Wednesday 28 Jan 2015 (Local Time) from LTBQ Reporting Station
Rain Showers Rain Showers  
Wind Chill:   Ceiling: 2500
Heat Index:   Visibility: 2.5mi
Dew Point:   Wind: 6mph
Humidity: 93%   Direction: 240°WSW
Pressure: 29.8"   Gusts: NA
Location:  40.75°N, 31.61°E
Report Text: LTBQ 280911Z 24005KT 200V290 4000 -SHRA BR SCT008 BKN025 BKN08009/08 Q1009 NOSIG RMK RWY09 26010KT
Loading
Personal Weather Stations






























Interactive Weather Map New forecast layout! Learn more

10-Day Weather Forecast

Advertisements
Track Severe Weather on mobile